Time;durP1;ratioP1;P1;durP2;ratioP2;P2;SDS_P1;SDS_P2;PMS_P1;PMS_P2;Temp;Humidity;BMP_temperature;BMP_pressure;BME280_temperature;BME280_humidity;BME280_pressure;Samples;Min_cycle;Max_cycle;Signal;HPM_P1;HPM_P2
2022/06/29 00:00:25;;;;;;;1.17;0.60;;;22.40;62.30;;;;;;5079369;27;43651;-58
2022/06/29 00:02:53;;;;;;;1.00;0.90;;;22.40;62.20;;;;;;5047095;27;45142;-58
2022/06/29 00:05:22;;;;;;;0.90;0.70;;;22.40;62.30;;;;;;5008449;27;43989;-58
2022/06/29 00:07:51;;;;;;;1.73;0.90;;;22.40;62.30;;;;;;5003202;27;43452;-58
2022/06/29 00:10:18;;;;;;;0.70;0.70;;;22.40;62.30;;;;;;5070150;27;43471;-58
2022/06/29 00:12:46;;;;;;;0.80;0.77;;;22.40;62.30;;;;;;5049703;27;45144;-58
2022/06/29 00:15:15;;;;;;;0.77;0.75;;;22.40;62.30;;;;;;5016536;27;43657;-58
2022/06/29 00:17:44;;;;;;;0.70;0.68;;;22.40;62.30;;;;;;5003440;27;43537;-58
2022/06/29 00:20:12;;;;;;;1.05;0.70;;;22.40;62.20;;;;;;5077611;27;43513;-58
2022/06/29 00:22:41;;;;;;;1.15;0.80;;;22.40;62.30;;;;;;5042152;27;45059;-58
2022/06/29 00:25:10;;;;;;;1.00;0.90;;;22.40;62.30;;;;;;5011561;27;44141;-58
2022/06/29 00:27:38;;;;;;;0.80;0.80;;;22.40;62.30;;;;;;5076441;27;43433;-58
2022/06/29 00:30:06;;;;;;;0.60;0.60;;;22.40;62.30;;;;;;5072975;27;43650;-58
2022/06/29 00:32:34;;;;;;;0.70;0.70;;;22.40;62.30;;;;;;5030135;27;44672;-58
2022/06/29 00:35:01;;;;;;;0.75;0.70;;;22.40;62.20;;;;;;5009143;27;44055;-58
2022/06/29 00:37:29;;;;;;;1.08;0.90;;;22.30;62.30;;;;;;5058242;27;43524;-58
2022/06/29 00:39:56;;;;;;;0.55;0.55;;;22.40;62.20;;;;;;5057102;27;43462;-58
2022/06/29 00:42:24;;;;;;;0.70;0.70;;;22.40;62.30;;;;;;5023448;27;44983;-58
2022/06/29 00:44:51;;;;;;;1.23;0.60;;;22.30;62.30;;;;;;5005968;27;44333;-58
2022/06/29 00:47:19;;;;;;;1.48;0.73;;;22.30;62.20;;;;;;5067809;27;43445;-58
2022/06/29 00:49:47;;;;;;;0.80;0.80;;;22.30;62.20;;;;;;5061814;27;43698;-58
2022/06/29 00:52:16;;;;;;;1.17;1.00;;;22.30;62.30;;;;;;5012665;27;45032;-58
2022/06/29 00:54:47;;;;;;;1.30;0.80;;;22.30;62.30;;;;;;5066731;27;43976;-58
2022/06/29 00:57:17;;;;;;;0.77;0.50;;;22.30;62.30;;;;;;5065689;27;43477;-58
2022/06/29 00:59:52;;;;;;;1.42;0.70;;;22.30;62.20;;;;;;5040764;27;43583;-58
2022/06/29 01:02:23;;;;;;;1.33;0.80;;;22.30;62.20;;;;;;5007480;27;43779;-58
2022/06/29 01:04:52;;;;;;;0.90;0.80;;;22.30;62.20;;;;;;5064873;27;43411;-58
2022/06/29 01:07:23;;;;;;;1.35;0.70;;;22.30;62.30;;;;;;5069207;27;43385;-58
2022/06/29 01:09:50;;;;;;;0.75;0.70;;;22.30;62.30;;;;;;5015419;27;43450;-58
2022/06/29 01:12:18;;;;;;;1.40;0.70;;;22.30;62.30;;;;;;5006638;27;44878;-58
2022/06/29 01:14:47;;;;;;;0.70;0.70;;;22.30;62.30;;;;;;5065208;27;44140;-58
2022/06/29 01:17:15;;;;;;;1.05;0.98;;;22.30;62.30;;;;;;5066612;27;43510;-58
2022/06/29 01:19:44;;;;;;;0.80;0.70;;;22.30;62.30;;;;;;5020402;27;43485;-58
2022/06/29 01:22:12;;;;;;;1.50;0.80;;;22.30;62.30;;;;;;5002347;27;45033;-58
2022/06/29 01:24:41;;;;;;;0.80;0.75;;;22.30;62.30;;;;;;5064459;27;44468;-58
2022/06/29 01:27:08;;;;;;;0.77;0.77;;;22.30;62.30;;;;;;5063415;27;43373;-58
2022/06/29 01:29:35;;;;;;;0.85;0.82;;;22.30;62.30;;;;;;5006300;27;43497;-58
2022/06/29 01:32:03;;;;;;;0.50;0.50;;;22.30;62.20;;;;;;4999966;27;44887;-58
2022/06/29 01:34:31;;;;;;;0.70;0.70;;;22.20;62.30;;;;;;5006341;27;43935;-58
2022/06/29 01:36:59;;;;;;;0.60;0.60;;;22.20;62.20;;;;;;5040430;27;43378;-58
2022/06/29 01:39:27;;;;;;;0.95;0.60;;;22.30;62.30;;;;;;5011114;27;43597;-58
2022/06/29 01:41:55;;;;;;;0.57;0.57;;;22.20;62.30;;;;;;5066329;27;45443;-58
2022/06/29 01:44:23;;;;;;;0.70;0.70;;;22.20;62.20;;;;;;5016935;27;43907;-58
2022/06/29 01:46:50;;;;;;;0.88;0.68;;;22.20;62.20;;;;;;5048560;27;43393;-58
2022/06/29 01:49:18;;;;;;;0.70;0.70;;;22.20;62.30;;;;;;5007844;27;43502;-58
2022/06/29 01:51:45;;;;;;;1.05;0.95;;;22.20;62.20;;;;;;5054242;27;44201;-58
2022/06/29 01:54:13;;;;;;;0.85;0.60;;;22.20;62.30;;;;;;5045689;27;44117;-58
2022/06/29 01:56:40;;;;;;;0.57;0.57;;;22.20;62.30;;;;;;5025355;27;43374;-58
2022/06/29 01:59:07;;;;;;;0.65;0.65;;;22.20;62.30;;;;;;5060033;27;43999;-58
2022/06/29 02:01:35;;;;;;;1.00;0.85;;;22.20;62.20;;;;;;5057081;27;45006;-58
2022/06/29 02:04:02;;;;;;;1.15;0.80;;;22.20;62.30;;;;;;5043753;27;43979;-58
2022/06/29 02:06:30;;;;;;;1.83;1.02;;;22.20;62.20;;;;;;5012838;27;43445;-58
2022/06/29 02:08:57;;;;;;;1.20;0.85;;;22.10;62.20;;;;;;5051082;27;43588;-58
2022/06/29 02:11:25;;;;;;;1.30;0.90;;;22.20;62.30;;;;;;5043297;27;44922;-58
2022/06/29 02:13:53;;;;;;;0.80;0.80;;;22.20;62.30;;;;;;5038353;27;44172;-58
2022/06/29 02:16:20;;;;;;;0.77;0.77;;;22.10;62.20;;;;;;5002784;27;43378;-58
2022/06/29 02:18:48;;;;;;;0.70;0.70;;;22.10;62.20;;;;;;5050795;27;43470;-58
2022/06/29 02:21:16;;;;;;;0.70;0.70;;;22.10;62.20;;;;;;5040825;27;45295;-58
2022/06/29 02:23:44;;;;;;;0.80;0.80;;;22.10;62.20;;;;;;5022981;27;44112;-58
2022/06/29 02:26:12;;;;;;;0.60;0.60;;;22.10;62.30;;;;;;5031453;27;43443;-58
2022/06/29 02:28:39;;;;;;;0.80;0.80;;;22.10;62.20;;;;;;5079694;27;43501;-58
2022/06/29 02:36:38;;;;;;;0.70;0.70;;;22.10;62.20;;;;;;5051486;27;43473;-58
2022/06/29 02:39:05;;;;;;;0.57;0.55;;;22.10;62.30;;;;;;5042803;27;43475;-58
2022/06/29 02:41:32;;;;;;;0.85;0.70;;;22.10;62.30;;;;;;5045085;27;45455;-58
2022/06/29 02:44:00;;;;;;;0.70;0.70;;;22.10;62.30;;;;;;5035621;27;44107;-58
2022/06/29 02:46:27;;;;;;;0.63;0.63;;;22.10;62.30;;;;;;5055827;27;43503;-58
2022/06/29 02:48:55;;;;;;;0.70;0.70;;;22.10;62.30;;;;;;5039282;27;43628;-58
2022/06/29 02:51:22;;;;;;;0.80;0.80;;;22.10;62.30;;;;;;5042500;27;44110;-58
2022/06/29 02:53:49;;;;;;;0.82;0.82;;;22.10;62.30;;;;;;4997784;28;43505;-58
2022/06/29 02:56:17;;;;;;;0.70;0.70;;;22.10;62.30;;;;;;5054605;27;43429;-58
2022/06/29 02:58:44;;;;;;;0.70;0.70;;;22.10;62.30;;;;;;5041533;27;43600;-58
2022/06/29 03:01:11;;;;;;;0.63;0.63;;;22.10;62.30;;;;;;5031475;27;45477;-58
2022/06/29 03:03:39;;;;;;;0.65;0.65;;;22.10;62.30;;;;;;5035351;27;43481;-58
2022/06/29 03:06:06;;;;;;;0.95;0.68;;;22.10;62.30;;;;;;5079828;27;43440;-58
2022/06/29 03:08:33;;;;;;;1.45;0.98;;;22.00;62.30;;;;;;5031147;27;44151;-58
2022/06/29 03:11:01;;;;;;;1.13;0.73;;;22.00;62.30;;;;;;5012667;27;44983;-58
2022/06/29 03:13:28;;;;;;;0.95;0.75;;;22.00;62.20;;;;;;5032843;27;44235;-58
2022/06/29 03:15:55;;;;;;;2.00;0.70;;;22.00;62.30;;;;;;5073526;27;43449;-58
2022/06/29 03:18:23;;;;;;;0.68;0.68;;;22.00;62.30;;;;;;5033559;27;43626;-58
2022/06/29 03:20:50;;;;;;;0.60;0.60;;;22.00;62.20;;;;;;5023804;27;44832;-58
2022/06/29 03:23:17;;;;;;;0.70;0.70;;;22.00;62.30;;;;;;5033314;27;43969;-58
2022/06/29 03:25:45;;;;;;;0.60;0.60;;;22.00;62.30;;;;;;5064685;27;43524;-58
2022/06/29 03:28:12;;;;;;;0.70;0.70;;;22.00;62.20;;;;;;5026768;27;43674;-58
2022/06/29 03:30:39;;;;;;;0.63;0.63;;;22.00;62.30;;;;;;5025208;27;43898;-58
2022/06/29 03:33:07;;;;;;;0.98;0.93;;;22.00;62.30;;;;;;5086906;27;44027;-58
2022/06/29 03:35:34;;;;;;;1.15;0.70;;;22.00;62.20;;;;;;5054533;27;43440;-58
2022/06/29 03:38:02;;;;;;;0.63;0.63;;;22.00;62.30;;;;;;5010097;27;43563;-58
2022/06/29 03:40:29;;;;;;;0.73;0.70;;;22.00;62.30;;;;;;5020219;27;44959;-58
2022/06/29 03:42:56;;;;;;;0.50;0.50;;;22.00;62.30;;;;;;5055518;27;43849;-57
2022/06/29 03:45:24;;;;;;;0.80;0.80;;;22.00;62.30;;;;;;5033201;27;43506;-58
2022/06/29 03:47:51;;;;;;;1.25;0.60;;;22.00;62.40;;;;;;5019212;27;43580;-58
2022/06/29 03:50:18;;;;;;;1.48;0.60;;;21.90;62.30;;;;;;5016057;27;45157;-58
2022/06/29 03:52:46;;;;;;;1.55;0.90;;;22.00;62.40;;;;;;5092321;27;44144;-58
2022/06/29 03:55:13;;;;;;;0.90;0.70;;;22.00;62.50;;;;;;5065288;27;43512;-58
2022/06/29 03:57:41;;;;;;;0.70;0.70;;;21.90;62.40;;;;;;5024455;27;43472;-58
2022/06/29 04:00:12;;;;;;;1.00;0.90;;;22.00;62.50;;;;;;5027165;27;44232;-58
2022/06/29 04:02:40;;;;;;;;;;;21.90;62.50;;;;;;5088741;27;43758;-58
2022/06/29 04:05:08;;;;;;;0.70;0.70;;;21.90;62.50;;;;;;5055006;27;43397;-58
2022/06/29 04:07:35;;;;;;;0.52;0.52;;;21.90;62.60;;;;;;5024658;27;43470;-58
2022/06/29 04:10:03;;;;;;;0.77;0.68;;;21.90;62.60;;;;;;5013863;27;45114;-58
2022/06/29 04:12:33;;;;;;;0.75;0.75;;;21.90;62.60;;;;;;5035272;27;43450;-58
2022/06/29 04:15:02;;;;;;;0.90;0.90;;;21.90;62.60;;;;;;5035058;27;44361;-58
2022/06/29 04:17:30;;;;;;;0.93;0.70;;;21.90;62.60;;;;;;5014531;27;43614;-58
2022/06/29 04:19:57;;;;;;;0.80;0.80;;;21.90;62.60;;;;;;5018347;27;45139;-58
2022/06/29 04:22:25;;;;;;;0.93;0.82;;;21.90;62.60;;;;;;5082016;27;43396;-58
2022/06/29 04:24:52;;;;;;;0.80;0.80;;;21.90;62.70;;;;;;5036878;27;43514;-58
2022/06/29 04:27:20;;;;;;;1.33;0.90;;;21.90;62.70;;;;;;5018036;27;43561;-58
2022/06/29 04:29:47;;;;;;;1.05;0.82;;;21.90;62.70;;;;;;5018634;27;44991;-58
2022/06/29 04:32:15;;;;;;;0.70;0.70;;;21.90;62.70;;;;;;5078516;27;43485;-58
2022/06/29 04:34:42;;;;;;;0.80;0.80;;;21.90;62.70;;;;;;5028926;27;43471;-58
2022/06/29 04:37:10;;;;;;;0.80;0.80;;;21.90;62.70;;;;;;5010165;27;43466;-58
2022/06/29 04:39:37;;;;;;;1.20;0.80;;;21.90;63.30;;;;;;5018680;27;44115;-58
2022/06/29 04:42:05;;;;;;;0.70;0.70;;;21.90;62.70;;;;;;5073793;27;43499;-58
2022/06/29 04:44:32;;;;;;;1.27;0.80;;;21.80;62.60;;;;;;5025451;27;43448;-58
2022/06/29 04:46:59;;;;;;;1.77;0.98;;;21.90;62.70;;;;;;5011210;27;43611;-58
2022/06/29 04:49:27;;;;;;;0.80;0.80;;;21.90;62.70;;;;;;5071125;27;44527;-58
2022/06/29 04:51:55;;;;;;;1.63;0.80;;;21.80;62.60;;;;;;5003813;27;44050;-58
2022/06/29 04:54:23;;;;;;;0.93;0.88;;;21.90;62.70;;;;;;4996339;27;43402;-58
2022/06/29 04:56:50;;;;;;;0.90;0.90;;;21.80;62.50;;;;;;5057137;27;43507;-58
2022/06/29 04:59:19;;;;;;;0.73;0.73;;;21.80;62.60;;;;;;5058441;27;44698;-58
2022/06/29 05:01:49;;;;;;;0.73;0.73;;;21.80;62.60;;;;;;5012226;27;43944;-59
2022/06/29 05:04:16;;;;;;;0.73;0.73;;;21.80;62.60;;;;;;5064706;27;43400;-59
2022/06/29 05:06:44;;;;;;;0.93;0.85;;;21.80;62.50;;;;;;5051517;27;43608;-58
2022/06/29 05:09:11;;;;;;;0.73;0.70;;;21.80;62.50;;;;;;5044640;27;44113;-58
2022/06/29 05:11:38;;;;;;;0.85;0.82;;;21.90;62.60;;;;;;4999478;27;43466;-58
2022/06/29 05:14:06;;;;;;;0.80;0.80;;;21.80;62.60;;;;;;5014411;27;43477;-58
2022/06/29 05:16:33;;;;;;;0.80;0.80;;;21.90;62.70;;;;;;5046302;27;43509;-59
2022/06/29 05:19:01;;;;;;;0.70;0.68;;;21.90;63.30;;;;;;5048564;27;44978;-58
2022/06/29 05:21:29;;;;;;;1.00;0.80;;;21.80;62.60;;;;;;5003161;27;43994;-59
2022/06/29 05:23:57;;;;;;;1.45;0.73;;;21.90;62.60;;;;;;5020173;27;43481;-59
2022/06/29 05:26:24;;;;;;;0.90;0.90;;;21.90;63.40;;;;;;5045684;27;43499;-59
2022/06/29 05:28:52;;;;;;;0.95;0.95;;;21.80;62.80;;;;;;5039637;27;43954;-58
2022/06/29 05:31:19;;;;;;;1.23;0.90;;;21.80;62.90;;;;;;5044221;27;43509;-59
2022/06/29 05:33:48;;;;;;;1.27;0.85;;;21.80;62.80;;;;;;5077119;27;43422;-58
2022/06/29 05:36:15;;;;;;;0.85;0.80;;;21.80;62.80;;;;;;5041243;27;43545;-59
2022/06/29 05:38:42;;;;;;;0.57;0.57;;;21.80;62.80;;;;;;5018358;27;44188;-58
2022/06/29 05:41:10;;;;;;;0.90;0.90;;;21.80;62.80;;;;;;5043457;27;43971;-59
2022/06/29 05:43:37;;;;;;;0.80;0.80;;;21.80;63.10;;;;;;5029724;27;43476;-59
2022/06/29 05:46:05;;;;;;;1.27;0.93;;;21.80;63.00;;;;;;5037996;27;43549;-59
2022/06/29 05:48:32;;;;;;;0.90;0.90;;;21.80;62.90;;;;;;5024550;27;45033;-59
2022/06/29 05:51:00;;;;;;;0.85;0.85;;;21.80;63.00;;;;;;5043629;27;43493;-59
2022/06/29 05:53:27;;;;;;;0.90;0.90;;;21.70;62.80;;;;;;5057816;27;43444;-59
2022/06/29 05:55:55;;;;;;;1.40;0.88;;;21.70;62.80;;;;;;5030880;27;43484;-59
2022/06/29 05:58:23;;;;;;;0.80;0.80;;;21.80;62.80;;;;;;5023998;27;44089;-59
2022/06/29 06:00:50;;;;;;;0.90;0.90;;;21.70;62.80;;;;;;5041147;27;44124;-58
2022/06/29 06:03:18;;;;;;;0.90;0.90;;;21.70;62.90;;;;;;5049161;27;43398;-58
2022/06/29 06:05:46;;;;;;;1.00;0.90;;;21.80;62.90;;;;;;5025814;27;43380;-58
2022/06/29 06:08:15;;;;;;;0.90;0.90;;;21.80;63.00;;;;;;5026838;27;44910;-59
2022/06/29 06:10:42;;;;;;;0.90;0.90;;;21.80;62.90;;;;;;5072426;27;43446;-58
2022/06/29 06:13:44;;;;;;;1.15;1.05;;;21.80;62.90;;;;;;5034450;27;43443;-59
2022/06/29 06:16:14;;;;;;;0.98;0.98;;;21.80;62.80;;;;;;4994397;27;43605;-58
2022/06/29 06:23:09;;;;;;;0.82;0.80;;;21.70;62.80;;;;;;5016672;27;43492;-58
2022/06/29 06:25:37;;;;;;;1.00;1.00;;;21.70;62.90;;;;;;5084517;27;43401;-59
2022/06/29 06:28:05;;;;;;;1.52;0.95;;;21.70;63.00;;;;;;5039097;27;43584;-58
2022/06/29 06:30:37;;;;;;;0.95;0.95;;;21.70;62.90;;;;;;5006971;27;43953;-58
2022/06/29 06:33:04;;;;;;;1.10;1.00;;;21.70;62.90;;;;;;5041842;27;43468;-58
2022/06/29 06:35:35;;;;;;;1.20;1.10;;;21.70;62.90;;;;;;5040031;27;43461;-58
2022/06/29 06:38:03;;;;;;;0.88;0.88;;;21.70;62.90;;;;;;5023918;27;43445;-59
2022/06/29 06:43:18;;;;;;;1.10;1.00;;;21.70;62.80;;;;;;5033664;27;43476;-59
2022/06/29 06:45:46;;;;;;;1.00;0.98;;;21.80;62.90;;;;;;4998432;27;43577;-59
2022/06/29 06:48:14;;;;;;;0.90;0.90;;;21.70;62.80;;;;;;5025146;27;43495;-59
2022/06/29 06:50:42;;;;;;;0.82;0.80;;;21.70;62.80;;;;;;5028125;27;45019;-59
2022/06/29 06:53:15;;;;;;;1.10;1.00;;;21.70;62.80;;;;;;5010227;27;43477;-59
2022/06/29 06:55:42;;;;;;;0.80;0.80;;;21.70;62.80;;;;;;5024064;27;43436;-59
2022/06/29 06:58:09;;;;;;;1.42;1.00;;;21.70;62.80;;;;;;5055304;27;43561;-59
2022/06/29 07:00:37;;;;;;;1.13;0.90;;;21.70;62.80;;;;;;5023195;27;45158;-58
2022/06/29 07:03:04;;;;;;;1.20;1.10;;;21.70;62.80;;;;;;5014170;27;44191;-59
2022/06/29 07:05:32;;;;;;;1.20;1.20;;;21.80;62.80;;;;;;5029497;27;43811;-58
2022/06/29 07:07:59;;;;;;;2.55;1.70;;;21.80;63.40;;;;;;5065749;27;43514;-59
2022/06/29 07:10:26;;;;;;;2.60;2.08;;;21.70;63.40;;;;;;5027597;27;44054;-58
2022/06/29 07:12:53;;;;;;;2.65;2.08;;;21.70;63.50;;;;;;5021007;27;44032;-59
2022/06/29 07:15:23;;;;;;;2.13;1.90;;;21.60;63.50;;;;;;5082545;27;43445;-59
2022/06/29 07:17:50;;;;;;;5.25;2.00;;;21.70;63.20;;;;;;5051831;27;43608;-59
2022/06/29 07:20:17;;;;;;;2.08;1.70;;;21.70;63.10;;;;;;5022536;27;44218;-58
2022/06/29 07:22:46;;;;;;;2.67;1.80;;;21.70;63.10;;;;;;5022300;27;44444;-58
2022/06/29 07:25:13;;;;;;;3.38;1.90;;;21.70;63.50;;;;;;5058702;27;43477;-60
2022/06/29 07:27:40;;;;;;;3.35;1.98;;;21.70;63.70;;;;;;5038767;27;43595;-58
2022/06/29 07:30:09;;;;;;;3.17;1.80;;;21.70;64.30;;;;;;5016488;27;44083;-58
2022/06/29 07:32:36;;;;;;;3.45;1.77;;;21.70;64.30;;;;;;5017554;27;43777;-58
2022/06/29 07:35:04;;;;;;;2.95;1.67;;;21.70;63.70;;;;;;5078539;27;43462;-58
2022/06/29 07:37:31;;;;;;;2.17;1.80;;;21.80;63.90;;;;;;5004303;27;44137;-58
2022/06/29 07:39:59;;;;;;;3.30;1.50;;;21.80;64.60;;;;;;5011347;27;44096;-58
2022/06/29 07:42:40;;;;;;;1.98;1.60;;;21.80;63.90;;;;;;5002287;27;43481;-58
2022/06/29 07:45:08;;;;;;;3.92;1.70;;;21.80;63.80;;;;;;5038073;27;43405;-58
2022/06/29 07:47:35;;;;;;;2.70;1.70;;;21.80;64.00;;;;;;5008350;27;43481;-58
2022/06/29 07:50:04;;;;;;;3.70;1.95;;;21.80;64.20;;;;;;5013520;27;45039;-58
2022/06/29 07:52:33;;;;;;;2.03;1.83;;;21.80;64.30;;;;;;5080098;27;43476;-58
2022/06/29 07:55:01;;;;;;;2.03;1.80;;;21.80;64.10;;;;;;5040399;27;44065;-58
2022/06/29 07:57:28;;;;;;;1.92;1.80;;;21.80;64.00;;;;;;5023510;27;43577;-58
2022/06/29 07:59:55;;;;;;;2.65;1.90;;;21.80;64.00;;;;;;5006156;27;44447;-58
2022/06/29 08:02:23;;;;;;;1.83;1.73;;;21.80;64.00;;;;;;5029145;27;43464;-58
2022/06/29 08:04:50;;;;;;;1.73;1.50;;;21.80;64.10;;;;;;5040671;27;43470;-59
2022/06/29 08:07:31;;;;;;;1.90;1.70;;;21.80;64.00;;;;;;5029569;28;43519;-58
2022/06/29 08:10:00;;;;;;;1.98;1.77;;;21.80;64.10;;;;;;5033155;27;44085;-58
2022/06/29 08:12:27;;;;;;;2.85;1.70;;;21.90;64.20;;;;;;5040843;27;43941;-59
2022/06/29 08:14:55;;;;;;;2.10;1.65;;;21.90;64.20;;;;;;5039967;28;43433;-58
2022/06/29 08:17:22;;;;;;;2.22;1.98;;;21.90;64.50;;;;;;5040023;28;43439;-58
2022/06/29 08:19:55;;;;;;;2.90;1.85;;;21.90;64.40;;;;;;5028495;28;44997;-58
2022/06/29 08:22:24;;;;;;;3.47;1.92;;;21.90;64.50;;;;;;5039819;27;43437;-58
2022/06/29 08:24:52;;;;;;;2.50;1.73;;;22.00;64.60;;;;;;5040008;28;43360;-58
2022/06/29 08:27:25;;;;;;;1.88;1.65;;;22.00;64.50;;;;;;5039378;28;43483;-59
2022/06/29 08:30:13;;;;;;;2.40;1.58;;;22.00;64.60;;;;;;5030083;27;43785;-58
2022/06/29 08:32:42;;;;;;;2.58;1.80;;;22.00;64.50;;;;;;5032824;28;44005;-58
2022/06/29 08:35:11;;;;;;;3.00;1.70;;;22.00;64.40;;;;;;5035971;28;43401;-58
2022/06/29 08:37:39;;;;;;;2.22;1.70;;;22.00;64.20;;;;;;5028206;28;43558;-59
2022/06/29 08:40:09;;;;;;;3.28;1.77;;;22.10;63.90;;;;;;5032434;28;45125;-59
2022/06/29 08:42:37;;;;;;;1.75;1.60;;;22.10;64.30;;;;;;5037094;27;44053;-58
2022/06/29 08:45:07;;;;;;;1.60;1.50;;;22.10;64.20;;;;;;5032001;28;43500;-58
2022/06/29 08:47:35;;;;;;;2.00;1.90;;;22.10;64.20;;;;;;5033775;28;43668;-59
2022/06/29 08:50:08;;;;;;;2.05;1.65;;;22.20;64.30;;;;;;5048974;27;43834;-58
2022/06/29 08:52:36;;;;;;;1.73;1.63;;;22.10;64.20;;;;;;5037138;28;43424;-58
2022/06/29 08:55:07;;;;;;;3.40;1.77;;;22.10;64.90;;;;;;5032593;28;43570;-58
2022/06/29 08:57:39;;;;;;;2.25;1.80;;;22.10;64.20;;;;;;5032141;27;43557;-58
2022/06/29 09:00:08;;;;;;;1.70;1.58;;;22.10;64.10;;;;;;5037750;28;45310;-58
2022/06/29 09:02:36;;;;;;;2.28;1.70;;;22.20;64.20;;;;;;5037355;28;43973;-58
2022/06/29 09:05:05;;;;;;;1.63;1.52;;;22.20;64.10;;;;;;5028214;28;43456;-59
2022/06/29 09:07:32;;;;;;;1.80;1.70;;;22.20;64.20;;;;;;5031929;28;44030;-59
2022/06/29 09:10:10;;;;;;;2.30;1.60;;;22.20;64.40;;;;;;5033879;27;44987;-59
2022/06/29 09:12:38;;;;;;;1.80;1.70;;;22.30;65.00;;;;;;5035130;27;43495;-58
2022/06/29 09:15:08;;;;;;;1.80;1.70;;;22.20;64.40;;;;;;5031613;27;43485;-59
2022/06/29 09:17:36;;;;;;;2.08;1.73;;;22.30;64.50;;;;;;5030577;28;43741;-59
2022/06/29 09:20:05;;;;;;;2.20;1.58;;;22.30;64.40;;;;;;5035008;28;44096;-58
2022/06/29 09:22:54;;;;;;;2.40;1.80;;;22.30;64.30;;;;;;5032226;28;44220;-59
2022/06/29 09:25:23;;;;;;;2.72;1.80;;;22.30;64.30;;;;;;5032183;27;43453;-59
2022/06/29 09:27:50;;;;;;;1.92;1.80;;;22.40;64.40;;;;;;5031616;28;43647;-58
2022/06/29 09:30:29;;;;;;;2.00;1.73;;;22.40;65.10;;;;;;5030704;27;44206;-59
2022/06/29 09:33:04;;;;;;;2.20;2.00;;;22.40;64.40;;;;;;5035749;27;43493;-59
2022/06/29 09:35:33;;;;;;;2.10;2.00;;;22.40;64.50;;;;;;5039497;27;43374;-59
2022/06/29 09:38:21;;;;;;;4.25;2.80;;;22.40;64.50;;;;;;5038479;28;43607;-59
2022/06/29 09:41:18;;;;;;;6.53;3.63;;;22.40;64.70;;;;;;5038078;28;43794;-59
2022/06/29 09:43:47;;;;;;;4.88;3.40;;;22.40;64.90;;;;;;5042146;28;43963;-58
2022/06/29 09:46:16;;;;;;;7.78;5.25;;;22.50;65.00;;;;;;5037999;28;44047;-59
2022/06/29 09:48:44;;;;;;;9.10;5.55;;;22.50;65.20;;;;;;5059163;27;43624;-59
2022/06/29 09:51:30;;;;;;;13.07;8.07;;;22.50;65.20;;;;;;5080121;27;44802;-59
2022/06/29 09:54:07;;;;;;;11.77;8.75;;;22.50;65.20;;;;;;5036581;27;43428;-59
2022/06/29 09:56:40;;;;;;;12.80;10.85;;;22.50;65.00;;;;;;5039364;27;43454;-59
2022/06/29 09:59:11;;;;;;;16.65;14.80;;;22.50;65.60;;;;;;5038801;28;43565;-59
2022/06/29 10:04:41;;;;;;;36.78;32.85;;;22.60;65.20;;;;;;4992951;28;45060;-59
2022/06/29 10:07:10;;;;;;;33.60;30.00;;;22.60;65.00;;;;;;5023973;28;43526;-59
2022/06/29 10:09:37;;;;;;;29.42;24.90;;;22.60;65.00;;;;;;5037624;28;43585;-59
2022/06/29 10:15:06;;;;;;;19.05;16.00;;;22.70;65.40;;;;;;5031967;28;43735;-59
2022/06/29 10:17:51;;;;;;;15.43;13.73;;;22.70;65.30;;;;;;5038898;28;44069;-59
2022/06/29 10:20:35;;;;;;;16.75;14.32;;;22.70;64.90;;;;;;5036883;27;43556;-60
2022/06/29 10:23:05;;;;;;;12.88;11.43;;;22.70;64.60;;;;;;5033542;27;44100;-59
2022/06/29 10:25:33;;;;;;;10.52;9.20;;;22.80;64.70;;;;;;5033566;27;43997;-59
2022/06/29 10:28:18;;;;;;;11.02;8.43;;;22.80;64.80;;;;;;5034197;28;43559;-60
2022/06/29 10:30:46;;;;;;;8.27;6.78;;;22.80;64.60;;;;;;5029323;28;43459;-60
2022/06/29 10:33:40;;;;;;;6.18;5.22;;;22.90;64.70;;;;;;5036799;27;44985;-59
2022/06/29 10:36:09;;;;;;;5.35;4.85;;;22.90;64.70;;;;;;5026675;27;43531;-59
2022/06/29 10:38:54;;;;;;;5.68;4.88;;;22.90;64.60;;;;;;5026084;28;43501;-60
2022/06/29 10:44:08;;;;;;;4.25;3.88;;;22.90;64.50;;;;;;5031980;27;44998;-59
2022/06/29 10:46:57;;;;;;;4.80;3.67;;;22.90;64.50;;;;;;5037161;27;43509;-60
2022/06/29 10:49:25;;;;;;;3.63;3.28;;;22.90;64.60;;;;;;5047320;27;43551;-59
2022/06/29 10:51:53;;;;;;;3.22;2.92;;;22.90;64.60;;;;;;5034700;27;43666;-59
2022/06/29 10:54:24;;;;;;;5.47;3.05;;;23.00;64.60;;;;;;5035784;27;45261;-60
2022/06/29 10:56:53;;;;;;;2.80;2.60;;;23.00;64.40;;;;;;5033761;27;43519;-60
2022/06/29 10:59:37;;;;;;;2.78;2.47;;;23.00;64.30;;;;;;5033028;28;43474;-60
2022/06/29 11:02:13;;;;;;;2.42;2.22;;;23.10;64.20;;;;;;5030900;28;43599;-60
2022/06/29 11:04:43;;;;;;;2.42;2.22;;;23.10;64.30;;;;;;5030010;28;44011;-59
2022/06/29 11:12:50;;;;;;;2.67;2.47;;;23.10;64.20;;;;;;5028131;28;43395;-59
2022/06/29 11:15:45;;;;;;;3.13;2.42;;;23.10;64.00;;;;;;5038590;28;44958;-59
2022/06/29 11:18:27;;;;;;;2.15;1.90;;;23.20;64.30;;;;;;5033262;28;43528;-59
2022/06/29 11:20:55;;;;;;;1.88;1.77;;;23.20;64.20;;;;;;5035067;27;43428;-60
2022/06/29 11:23:30;;;;;;;2.00;1.90;;;23.20;64.00;;;;;;5038160;27;43573;-60
2022/06/29 11:25:58;;;;;;;1.95;1.85;;;23.10;64.10;;;;;;5037247;28;44977;-60
2022/06/29 11:28:32;;;;;;;2.22;1.95;;;23.20;64.00;;;;;;5035688;28;44432;-60
2022/06/29 11:31:10;;;;;;;1.90;1.80;;;23.20;63.90;;;;;;5026147;28;43389;-59
2022/06/29 11:33:49;;;;;;;2.22;2.03;;;23.20;63.80;;;;;;5034057;28;43391;-59
2022/06/29 11:36:19;;;;;;;2.28;1.90;;;23.20;64.10;;;;;;5029574;27;44098;-60
2022/06/29 11:38:53;;;;;;;3.55;2.00;;;23.20;63.80;;;;;;5029196;27;43441;-59
2022/06/29 11:41:23;;;;;;;1.85;1.75;;;23.30;64.20;;;;;;5030168;27;43597;-59
2022/06/29 11:44:05;;;;;;;2.58;2.00;;;23.40;64.00;;;;;;5031119;27;43385;-60
2022/06/29 11:46:37;;;;;;;2.55;2.00;;;23.40;64.00;;;;;;5026135;27;44693;-60
2022/06/29 11:52:03;;;;;;;2.13;1.80;;;23.40;63.80;;;;;;5029650;27;43455;-59
2022/06/29 11:54:51;;;;;;;1.98;1.88;;;23.40;63.70;;;;;;5029875;27;43448;-60
2022/06/29 11:57:20;;;;;;;1.80;1.70;;;23.40;63.60;;;;;;5032942;28;44005;-60
2022/06/29 11:59:48;;;;;;;1.92;1.83;;;23.40;63.50;;;;;;5026513;28;43448;-60
2022/06/29 12:02:16;;;;;;;1.98;1.88;;;23.40;63.50;;;;;;5027495;28;43532;-59
2022/06/29 12:04:46;;;;;;;2.15;1.80;;;23.50;63.50;;;;;;5029574;27;43693;-60
2022/06/29 12:07:18;;;;;;;2.10;2.00;;;23.50;63.50;;;;;;5034403;27;44420;-60
2022/06/29 12:09:46;;;;;;;2.00;1.80;;;23.50;63.40;;;;;;5031627;27;43971;-59
2022/06/29 12:12:14;;;;;;;2.10;1.90;;;23.50;63.50;;;;;;5101307;27;43581;-59
2022/06/29 12:14:45;;;;;;;2.28;1.95;;;23.60;63.30;;;;;;5032912;28;43526;-60
2022/06/29 12:17:14;;;;;;;2.70;1.75;;;23.60;63.30;;;;;;5035892;28;45064;-59
2022/06/29 12:19:44;;;;;;;2.33;1.70;;;23.60;63.10;;;;;;5036494;28;43494;-59
2022/06/29 12:22:12;;;;;;;1.65;1.55;;;23.60;63.10;;;;;;5031875;28;43488;-59
2022/06/29 12:24:40;;;;;;;1.90;1.70;;;23.60;63.20;;;;;;5031524;28;43509;-59
2022/06/29 12:27:10;;;;;;;1.60;1.48;;;23.60;63.20;;;;;;5100579;27;44297;-59
2022/06/29 12:29:37;;;;;;;2.33;1.73;;;23.70;62.90;;;;;;5039451;28;43929;-59
2022/06/29 12:47:49;;;;;;;1.92;1.65;;;23.70;62.70;;;;;;5029690;28;43518;-58
2022/06/29 12:50:17;;;;;;;2.35;1.70;;;23.70;62.50;;;;;;5058343;27;43467;-59
2022/06/29 12:52:48;;;;;;;2.25;1.52;;;23.80;62.50;;;;;;5039091;27;43476;-59
2022/06/29 12:55:16;;;;;;;2.60;1.98;;;23.80;62.60;;;;;;5038185;28;44720;-59
2022/06/29 12:57:44;;;;;;;2.85;2.10;;;23.80;62.30;;;;;;5039465;28;43508;-59
2022/06/29 13:00:13;;;;;;;4.35;2.00;;;23.90;61.90;;;;;;5039482;28;43383;-59
2022/06/29 13:02:40;;;;;;;4.03;2.33;;;23.90;61.90;;;;;;5038140;27;43555;-59
2022/06/29 13:05:09;;;;;;;4.55;2.10;;;23.90;62.30;;;;;;5040686;27;43823;-59
2022/06/29 13:07:39;;;;;;;2.67;2.33;;;23.90;62.20;;;;;;5118674;27;43405;-59
2022/06/29 13:10:07;;;;;;;3.22;2.22;;;23.90;61.90;;;;;;5034097;27;43488;-59
2022/06/29 13:12:38;;;;;;;2.80;2.25;;;24.00;61.80;;;;;;5105084;27;43458;-59
2022/06/29 13:15:06;;;;;;;2.53;2.10;;;24.00;61.40;;;;;;5034485;27;44736;-60
2022/06/29 13:17:41;;;;;;;2.53;2.33;;;24.00;61.50;;;;;;5037858;28;43489;-60
2022/06/29 13:20:12;;;;;;;2.67;2.00;;;24.00;61.60;;;;;;5039483;27;43508;-59
2022/06/29 13:22:40;;;;;;;3.42;2.40;;;24.10;61.70;;;;;;5037944;28;43555;-59
2022/06/29 13:25:09;;;;;;;2.25;2.15;;;24.10;61.90;;;;;;5039492;27;44419;-59
2022/06/29 13:27:36;;;;;;;3.78;2.25;;;24.10;61.80;;;;;;5038977;28;44015;-59
2022/06/29 13:30:06;;;;;;;2.28;2.13;;;24.10;61.90;;;;;;5038123;27;43499;-59
2022/06/29 13:32:33;;;;;;;2.78;2.50;;;24.10;61.90;;;;;;5038311;28;43528;-59
2022/06/29 13:35:01;;;;;;;2.63;2.47;;;24.20;62.20;;;;;;5038699;28;45041;-59
2022/06/29 13:37:28;;;;;;;2.33;2.13;;;24.20;62.10;;;;;;5038269;27;44015;-59
2022/06/29 13:39:55;;;;;;;2.38;2.17;;;24.20;62.10;;;;;;5039094;27;43437;-59
2022/06/29 13:42:23;;;;;;;2.33;2.22;;;24.20;61.90;;;;;;5039432;28;43539;-59